sensor_id;sensor_type;location;lat;lon;timestamp;temperature;humidity
34460;DHT22;20704;51.260;22.558;2023-06-22T00:01:31;22.30;99.90
34460;DHT22;20704;51.260;22.558;2023-06-22T00:03:33;22.30;99.90
34460;DHT22;20704;51.260;22.558;2023-06-22T00:05:35;22.30;99.90
34460;DHT22;20704;51.260;22.558;2023-06-22T00:07:38;22.30;99.90
34460;DHT22;20704;51.260;22.558;2023-06-22T00:09:40;22.30;99.90
34460;DHT22;20704;51.260;22.558;2023-06-22T00:11:43;22.30;99.90
34460;DHT22;20704;51.260;22.558;2023-06-22T00:13:45;22.30;99.90
34460;DHT22;20704;51.260;22.558;2023-06-22T00:15:47;22.30;99.90
34460;DHT22;20704;51.260;22.558;2023-06-22T00:17:50;22.30;99.90
34460;DHT22;20704;51.260;22.558;2023-06-22T00:19:53;22.40;99.90
34460;DHT22;20704;51.260;22.558;2023-06-22T00:21:57;22.40;99.90
34460;DHT22;20704;51.260;22.558;2023-06-22T00:24:02;22.40;99.90
34460;DHT22;20704;51.260;22.558;2023-06-22T00:26:04;22.30;99.90
34460;DHT22;20704;51.260;22.558;2023-06-22T00:28:07;22.30;99.90
34460;DHT22;20704;51.260;22.558;2023-06-22T00:30:10;22.30;99.90
34460;DHT22;20704;51.260;22.558;2023-06-22T00:32:12;22.30;99.90
34460;DHT22;20704;51.260;22.558;2023-06-22T00:34:15;22.30;99.90
34460;DHT22;20704;51.260;22.558;2023-06-22T00:36:18;22.20;99.90
34460;DHT22;20704;51.260;22.558;2023-06-22T00:38:21;22.20;99.90
34460;DHT22;20704;51.260;22.558;2023-06-22T00:40:23;22.30;99.90
34460;DHT22;20704;51.260;22.558;2023-06-22T00:42:26;22.20;99.90
34460;DHT22;20704;51.260;22.558;2023-06-22T00:44:28;22.20;99.90
34460;DHT22;20704;51.260;22.558;2023-06-22T00:46:30;22.10;99.90
34460;DHT22;20704;51.260;22.558;2023-06-22T00:48:33;21.90;1.00
34460;DHT22;20704;51.260;22.558;2023-06-22T00:50:40;21.90;1.00
34460;DHT22;20704;51.260;22.558;2023-06-22T00:52:42;21.80;63.10
34460;DHT22;20704;51.260;22.558;2023-06-22T00:54:51;21.80;99.90
34460;DHT22;20704;51.260;22.558;2023-06-22T00:56:53;21.80;99.90
34460;DHT22;20704;51.260;22.558;2023-06-22T00:58:58;21.70;99.90
34460;DHT22;20704;51.260;22.558;2023-06-22T01:01:02;21.70;99.90
34460;DHT22;20704;51.260;22.558;2023-06-22T01:03:04;21.70;99.90
34460;DHT22;20704;51.260;22.558;2023-06-22T01:05:13;21.70;99.90
34460;DHT22;20704;51.260;22.558;2023-06-22T01:07:39;21.80;99.90
34460;DHT22;20704;51.260;22.558;2023-06-22T01:09:59;21.80;99.90
34460;DHT22;20704;51.260;22.558;2023-06-22T01:12:06;21.80;99.90
34460;DHT22;20704;51.260;22.558;2023-06-22T01:14:23;21.80;99.90
34460;DHT22;20704;51.260;22.558;2023-06-22T01:16:34;21.70;99.90
34460;DHT22;20704;51.260;22.558;2023-06-22T01:18:41;21.70;99.90
34460;DHT22;20704;51.260;22.558;2023-06-22T01:20:44;21.70;99.90
34460;DHT22;20704;51.260;22.558;2023-06-22T01:25:20;21.60;1.00
34460;DHT22;20704;51.260;22.558;2023-06-22T01:29:43;21.40;86.40
34460;DHT22;20704;51.260;22.558;2023-06-22T01:31:48;21.50;1.00
34460;DHT22;20704;51.260;22.558;2023-06-22T01:33:54;21.40;1.00
34460;DHT22;20704;51.260;22.558;2023-06-22T01:35:58;21.40;70.90
34460;DHT22;20704;51.260;22.558;2023-06-22T01:38:00;21.30;99.90
34460;DHT22;20704;51.260;22.558;2023-06-22T01:40:05;21.30;99.90
34460;DHT22;20704;51.260;22.558;2023-06-22T01:42:09;21.30;99.90
34460;DHT22;20704;51.260;22.558;2023-06-22T01:44:12;21.30;99.90
34460;DHT22;20704;51.260;22.558;2023-06-22T01:46:15;21.30;99.90
34460;DHT22;20704;51.260;22.558;2023-06-22T01:48:19;21.20;99.90
34460;DHT22;20704;51.260;22.558;2023-06-22T01:50:21;21.20;99.90
34460;DHT22;20704;51.260;22.558;2023-06-22T01:52:24;21.20;99.90
34460;DHT22;20704;51.260;22.558;2023-06-22T01:54:26;21.10;1.00
34460;DHT22;20704;51.260;22.558;2023-06-22T01:56:28;21.00;1.00
34460;DHT22;20704;51.260;22.558;2023-06-22T01:58:32;20.90;99.90
34460;DHT22;20704;51.260;22.558;2023-06-22T02:00:38;20.90;99.90
34460;DHT22;20704;51.260;22.558;2023-06-22T02:03:03;20.80;1.00
34460;DHT22;20704;51.260;22.558;2023-06-22T02:05:09;20.80;99.90
34460;DHT22;20704;51.260;22.558;2023-06-22T02:07:16;20.70;1.00
34460;DHT22;20704;51.260;22.558;2023-06-22T02:09:20;20.70;99.90
34460;DHT22;20704;51.260;22.558;2023-06-22T02:11:26;20.70;99.90
34460;DHT22;20704;51.260;22.558;2023-06-22T02:13:30;20.70;99.90
34460;DHT22;20704;51.260;22.558;2023-06-22T02:15:33;20.70;99.90
34460;DHT22;20704;51.260;22.558;2023-06-22T02:17:36;20.70;1.00
34460;DHT22;20704;51.260;22.558;2023-06-22T02:19:41;20.70;1.00
34460;DHT22;20704;51.260;22.558;2023-06-22T02:21:43;20.70;99.90
34460;DHT22;20704;51.260;22.558;2023-06-22T02:23:46;20.70;99.90
34460;DHT22;20704;51.260;22.558;2023-06-22T02:25:49;20.70;7.00
34460;DHT22;20704;51.260;22.558;2023-06-22T02:27:51;20.70;1.00
34460;DHT22;20704;51.260;22.558;2023-06-22T02:29:54;20.70;99.90
34460;DHT22;20704;51.260;22.558;2023-06-22T02:31:56;20.70;99.90
34460;DHT22;20704;51.260;22.558;2023-06-22T02:33:59;20.70;1.00
34460;DHT22;20704;51.260;22.558;2023-06-22T02:36:01;20.70;99.90
34460;DHT22;20704;51.260;22.558;2023-06-22T02:38:07;20.70;99.90
34460;DHT22;20704;51.260;22.558;2023-06-22T02:40:10;20.70;99.90
34460;DHT22;20704;51.260;22.558;2023-06-22T02:42:13;20.80;99.90
34460;DHT22;20704;51.260;22.558;2023-06-22T02:44:15;20.80;1.00
34460;DHT22;20704;51.260;22.558;2023-06-22T02:46:18;20.80;99.90
34460;DHT22;20704;51.260;22.558;2023-06-22T02:48:20;20.80;1.00
34460;DHT22;20704;51.260;22.558;2023-06-22T02:50:22;20.90;1.00
34460;DHT22;20704;51.260;22.558;2023-06-22T02:52:25;20.90;99.90
34460;DHT22;20704;51.260;22.558;2023-06-22T02:54:27;21.00;99.90
34460;DHT22;20704;51.260;22.558;2023-06-22T02:56:29;20.90;1.50
34460;DHT22;20704;51.260;22.558;2023-06-22T02:58:32;20.90;1.00
34460;DHT22;20704;51.260;22.558;2023-06-22T03:00:40;20.90;73.70
34460;DHT22;20704;51.260;22.558;2023-06-22T03:02:49;20.90;99.90
34460;DHT22;20704;51.260;22.558;2023-06-22T03:04:52;20.90;98.70
34460;DHT22;20704;51.260;22.558;2023-06-22T03:06:56;20.90;99.90
34460;DHT22;20704;51.260;22.558;2023-06-22T03:09:02;20.90;99.90
34460;DHT22;20704;51.260;22.558;2023-06-22T03:11:06;21.00;69.60
34460;DHT22;20704;51.260;22.558;2023-06-22T03:13:09;20.90;99.90
34460;DHT22;20704;51.260;22.558;2023-06-22T03:15:12;20.90;99.90
34460;DHT22;20704;51.260;22.558;2023-06-22T03:17:15;20.90;99.90
34460;DHT22;20704;51.260;22.558;2023-06-22T03:19:17;21.00;99.90
34460;DHT22;20704;51.260;22.558;2023-06-22T03:21:21;21.00;99.90
34460;DHT22;20704;51.260;22.558;2023-06-22T03:23:24;21.10;99.90
34460;DHT22;20704;51.260;22.558;2023-06-22T03:25:26;21.10;99.90
34460;DHT22;20704;51.260;22.558;2023-06-22T03:27:29;21.30;99.90
34460;DHT22;20704;51.260;22.558;2023-06-22T03:29:31;21.30;1.00
34460;DHT22;20704;51.260;22.558;2023-06-22T03:31:33;21.30;99.90
34460;DHT22;20704;51.260;22.558;2023-06-22T03:33:36;21.40;99.90
34460;DHT22;20704;51.260;22.558;2023-06-22T03:35:38;21.30;99.90
34460;DHT22;20704;51.260;22.558;2023-06-22T03:37:41;21.40;99.90
34460;DHT22;20704;51.260;22.558;2023-06-22T03:39:43;21.50;99.90
34460;DHT22;20704;51.260;22.558;2023-06-22T03:41:45;21.60;18.20
34460;DHT22;20704;51.260;22.558;2023-06-22T03:43:48;21.60;1.00
34460;DHT22;20704;51.260;22.558;2023-06-22T03:45:50;21.60;1.00
34460;DHT22;20704;51.260;22.558;2023-06-22T03:47:52;21.70;99.90
34460;DHT22;20704;51.260;22.558;2023-06-22T03:49:55;21.60;99.90
34460;DHT22;20704;51.260;22.558;2023-06-22T03:51:57;21.70;99.90
34460;DHT22;20704;51.260;22.558;2023-06-22T03:54:00;21.70;99.90
34460;DHT22;20704;51.260;22.558;2023-06-22T03:56:02;21.80;99.90
34460;DHT22;20704;51.260;22.558;2023-06-22T03:58:04;21.70;99.90
34460;DHT22;20704;51.260;22.558;2023-06-22T04:00:08;21.80;99.90
34460;DHT22;20704;51.260;22.558;2023-06-22T04:02:12;21.80;99.90
34460;DHT22;20704;51.260;22.558;2023-06-22T04:04:14;21.90;99.90
34460;DHT22;20704;51.260;22.558;2023-06-22T04:06:17;22.00;99.90
34460;DHT22;20704;51.260;22.558;2023-06-22T04:08:20;22.00;1.00
34460;DHT22;20704;51.260;22.558;2023-06-22T04:10:22;21.90;64.50
34460;DHT22;20704;51.260;22.558;2023-06-22T04:12:25;22.00;2.00
34460;DHT22;20704;51.260;22.558;2023-06-22T04:14:27;22.00;1.00
34460;DHT22;20704;51.260;22.558;2023-06-22T04:16:30;22.00;80.90
34460;DHT22;20704;51.260;22.558;2023-06-22T04:18:32;22.10;45.90
34460;DHT22;20704;51.260;22.558;2023-06-22T04:20:34;22.10;1.00
34460;DHT22;20704;51.260;22.558;2023-06-22T04:22:37;22.20;1.00
34460;DHT22;20704;51.260;22.558;2023-06-22T04:24:39;22.20;99.90
34460;DHT22;20704;51.260;22.558;2023-06-22T04:26:42;22.30;99.90
34460;DHT22;20704;51.260;22.558;2023-06-22T04:28:44;22.40;99.90
34460;DHT22;20704;51.260;22.558;2023-06-22T04:30:53;22.50;99.90
34460;DHT22;20704;51.260;22.558;2023-06-22T04:33:00;22.50;99.90
34460;DHT22;20704;51.260;22.558;2023-06-22T04:35:03;22.50;99.90
34460;DHT22;20704;51.260;22.558;2023-06-22T04:37:09;22.60;52.70
34460;DHT22;20704;51.260;22.558;2023-06-22T04:39:11;22.60;1.00
34460;DHT22;20704;51.260;22.558;2023-06-22T04:41:14;22.80;1.00
34460;DHT22;20704;51.260;22.558;2023-06-22T04:43:26;22.80;99.90
34460;DHT22;20704;51.260;22.558;2023-06-22T04:45:33;22.90;99.90
34460;DHT22;20704;51.260;22.558;2023-06-22T04:47:35;23.00;99.90
34460;DHT22;20704;51.260;22.558;2023-06-22T04:49:41;23.00;99.90
34460;DHT22;20704;51.260;22.558;2023-06-22T04:51:45;23.10;99.90
34460;DHT22;20704;51.260;22.558;2023-06-22T04:53:47;23.10;99.90
34460;DHT22;20704;51.260;22.558;2023-06-22T04:55:50;23.20;99.90
34460;DHT22;20704;51.260;22.558;2023-06-22T04:57:55;23.30;83.50
34460;DHT22;20704;51.260;22.558;2023-06-22T04:59:58;23.30;63.40
34460;DHT22;20704;51.260;22.558;2023-06-22T05:02:16;23.40;25.10
34460;DHT22;20704;51.260;22.558;2023-06-22T05:04:18;23.40;1.00
34460;DHT22;20704;51.260;22.558;2023-06-22T05:06:22;23.50;1.00
34460;DHT22;20704;51.260;22.558;2023-06-22T05:08:26;23.50;1.00
34460;DHT22;20704;51.260;22.558;2023-06-22T05:10:31;23.60;1.00
34460;DHT22;20704;51.260;22.558;2023-06-22T05:12:33;23.60;1.00
34460;DHT22;20704;51.260;22.558;2023-06-22T05:14:36;23.70;1.00
34460;DHT22;20704;51.260;22.558;2023-06-22T05:16:38;23.60;1.00
34460;DHT22;20704;51.260;22.558;2023-06-22T05:18:41;23.60;1.00
34460;DHT22;20704;51.260;22.558;2023-06-22T05:20:45;23.60;1.00
34460;DHT22;20704;51.260;22.558;2023-06-22T05:22:48;23.60;1.00
34460;DHT22;20704;51.260;22.558;2023-06-22T05:24:50;23.60;1.00
34460;DHT22;20704;51.260;22.558;2023-06-22T05:26:52;23.50;1.00
34460;DHT22;20704;51.260;22.558;2023-06-22T05:28:55;23.50;1.00
34460;DHT22;20704;51.260;22.558;2023-06-22T05:30:57;23.50;1.00
34460;DHT22;20704;51.260;22.558;2023-06-22T05:33:00;23.50;1.00
34460;DHT22;20704;51.260;22.558;2023-06-22T05:35:03;23.40;45.90
34460;DHT22;20704;51.260;22.558;2023-06-22T05:37:06;23.40;1.00
34460;DHT22;20704;51.260;22.558;2023-06-22T05:39:12;23.40;1.00
34460;DHT22;20704;51.260;22.558;2023-06-22T05:41:18;23.40;32.00
34460;DHT22;20704;51.260;22.558;2023-06-22T05:43:20;23.40;34.80
34460;DHT22;20704;51.260;22.558;2023-06-22T05:45:23;23.30;82.90
34460;DHT22;20704;51.260;22.558;2023-06-22T05:47:25;23.40;99.90
34460;DHT22;20704;51.260;22.558;2023-06-22T05:49:27;23.40;99.90
34460;DHT22;20704;51.260;22.558;2023-06-22T05:51:35;23.40;99.90
34460;DHT22;20704;51.260;22.558;2023-06-22T05:53:37;23.50;99.90
34460;DHT22;20704;51.260;22.558;2023-06-22T05:55:39;23.60;88.20
34460;DHT22;20704;51.260;22.558;2023-06-22T05:57:42;23.70;31.40
34460;DHT22;20704;51.260;22.558;2023-06-22T05:59:44;23.90;1.00
34460;DHT22;20704;51.260;22.558;2023-06-22T06:01:47;24.00;1.00
34460;DHT22;20704;51.260;22.558;2023-06-22T06:03:52;24.30;99.90
34460;DHT22;20704;51.260;22.558;2023-06-22T06:05:55;24.50;99.90
34460;DHT22;20704;51.260;22.558;2023-06-22T06:07:58;24.80;99.90
34460;DHT22;20704;51.260;22.558;2023-06-22T06:10:00;24.90;99.90
34460;DHT22;20704;51.260;22.558;2023-06-22T06:12:03;25.00;81.30
34460;DHT22;20704;51.260;22.558;2023-06-22T06:14:05;25.00;23.70
34460;DHT22;20704;51.260;22.558;2023-06-22T06:16:08;25.00;18.50
34460;DHT22;20704;51.260;22.558;2023-06-22T06:18:10;25.10;18.10
34460;DHT22;20704;51.260;22.558;2023-06-22T06:20:13;25.10;1.00
34460;DHT22;20704;51.260;22.558;2023-06-22T06:22:15;25.00;1.00
34460;DHT22;20704;51.260;22.558;2023-06-22T06:24:18;25.10;22.30
34460;DHT22;20704;51.260;22.558;2023-06-22T06:26:20;25.20;1.00
34460;DHT22;20704;51.260;22.558;2023-06-22T06:28:31;25.30;1.00
34460;DHT22;20704;51.260;22.558;2023-06-22T06:30:33;25.30;1.00
34460;DHT22;20704;51.260;22.558;2023-06-22T06:32:37;25.40;1.00
34460;DHT22;20704;51.260;22.558;2023-06-22T06:34:40;25.40;1.00
34460;DHT22;20704;51.260;22.558;2023-06-22T06:36:43;25.40;1.00
34460;DHT22;20704;51.260;22.558;2023-06-22T06:38:46;25.50;1.00
34460;DHT22;20704;51.260;22.558;2023-06-22T06:40:49;25.70;1.00
34460;DHT22;20704;51.260;22.558;2023-06-22T06:42:51;25.70;1.00
34460;DHT22;20704;51.260;22.558;2023-06-22T06:44:54;25.80;1.00
34460;DHT22;20704;51.260;22.558;2023-06-22T06:46:57;25.90;1.00
34460;DHT22;20704;51.260;22.558;2023-06-22T06:48:59;26.10;1.00
34460;DHT22;20704;51.260;22.558;2023-06-22T06:51:02;26.50;1.00
34460;DHT22;20704;51.260;22.558;2023-06-22T06:53:04;27.20;99.90
34460;DHT22;20704;51.260;22.558;2023-06-22T06:55:08;27.80;99.90
34460;DHT22;20704;51.260;22.558;2023-06-22T06:57:14;28.30;99.90
34460;DHT22;20704;51.260;22.558;2023-06-22T06:59:17;28.90;99.90
34460;DHT22;20704;51.260;22.558;2023-06-22T07:01:20;29.20;99.90
34460;DHT22;20704;51.260;22.558;2023-06-22T07:03:23;29.60;99.90
34460;DHT22;20704;51.260;22.558;2023-06-22T07:05:26;30.10;99.90
34460;DHT22;20704;51.260;22.558;2023-06-22T07:07:28;30.50;99.90
34460;DHT22;20704;51.260;22.558;2023-06-22T07:09:30;30.80;99.90
34460;DHT22;20704;51.260;22.558;2023-06-22T07:11:33;31.20;99.90
34460;DHT22;20704;51.260;22.558;2023-06-22T07:13:35;31.50;99.90
34460;DHT22;20704;51.260;22.558;2023-06-22T07:15:37;31.70;99.90
34460;DHT22;20704;51.260;22.558;2023-06-22T07:17:40;31.60;99.90
34460;DHT22;20704;51.260;22.558;2023-06-22T07:19:43;31.80;99.90
34460;DHT22;20704;51.260;22.558;2023-06-22T07:21:46;32.10;99.90
34460;DHT22;20704;51.260;22.558;2023-06-22T07:23:48;32.20;99.90
34460;DHT22;20704;51.260;22.558;2023-06-22T07:25:50;32.10;99.90
34460;DHT22;20704;51.260;22.558;2023-06-22T07:28:05;31.80;99.90
34460;DHT22;20704;51.260;22.558;2023-06-22T07:30:09;31.60;99.90
34460;DHT22;20704;51.260;22.558;2023-06-22T07:32:11;31.50;99.90
34460;DHT22;20704;51.260;22.558;2023-06-22T07:34:14;31.60;99.90
34460;DHT22;20704;51.260;22.558;2023-06-22T07:36:17;31.70;99.90
34460;DHT22;20704;51.260;22.558;2023-06-22T07:38:19;31.80;99.90
34460;DHT22;20704;51.260;22.558;2023-06-22T07:40:22;31.80;99.90
34460;DHT22;20704;51.260;22.558;2023-06-22T07:42:27;32.10;99.90
34460;DHT22;20704;51.260;22.558;2023-06-22T07:44:31;32.10;99.90
34460;DHT22;20704;51.260;22.558;2023-06-22T07:46:33;32.00;99.90
34460;DHT22;20704;51.260;22.558;2023-06-22T07:48:37;32.00;99.90
34460;DHT22;20704;51.260;22.558;2023-06-22T07:50:39;31.60;99.90
34460;DHT22;20704;51.260;22.558;2023-06-22T07:52:42;32.00;99.90
34460;DHT22;20704;51.260;22.558;2023-06-22T07:54:44;31.40;99.90
34460;DHT22;20704;51.260;22.558;2023-06-22T07:56:46;31.20;99.90
34460;DHT22;20704;51.260;22.558;2023-06-22T07:58:49;31.50;99.90
34460;DHT22;20704;51.260;22.558;2023-06-22T08:00:51;31.70;99.90
34460;DHT22;20704;51.260;22.558;2023-06-22T08:02:53;32.20;99.90
34460;DHT22;20704;51.260;22.558;2023-06-22T08:04:56;32.50;99.90
34460;DHT22;20704;51.260;22.558;2023-06-22T08:07:18;32.80;99.90
34460;DHT22;20704;51.260;22.558;2023-06-22T08:09:22;33.20;99.90
34460;DHT22;20704;51.260;22.558;2023-06-22T08:11:24;33.50;99.90
34460;DHT22;20704;51.260;22.558;2023-06-22T08:13:27;33.80;99.90
34460;DHT22;20704;51.260;22.558;2023-06-22T08:15:30;33.80;99.90
34460;DHT22;20704;51.260;22.558;2023-06-22T08:17:33;33.80;99.90
34460;DHT22;20704;51.260;22.558;2023-06-22T08:19:37;33.90;99.90
34460;DHT22;20704;51.260;22.558;2023-06-22T08:21:39;34.00;98.80
34460;DHT22;20704;51.260;22.558;2023-06-22T08:23:41;34.00;97.60
34460;DHT22;20704;51.260;22.558;2023-06-22T08:25:44;33.80;96.50
34460;DHT22;20704;51.260;22.558;2023-06-22T08:27:47;34.00;96.00
34460;DHT22;20704;51.260;22.558;2023-06-22T08:29:50;34.00;94.80
34460;DHT22;20704;51.260;22.558;2023-06-22T08:31:53;34.10;93.20
34460;DHT22;20704;51.260;22.558;2023-06-22T08:33:56;34.20;92.50
34460;DHT22;20704;51.260;22.558;2023-06-22T08:35:59;34.40;92.40
34460;DHT22;20704;51.260;22.558;2023-06-22T08:38:02;34.60;91.90
34460;DHT22;20704;51.260;22.558;2023-06-22T08:40:07;34.00;89.90
34460;DHT22;20704;51.260;22.558;2023-06-22T08:42:11;34.10;88.90
34460;DHT22;20704;51.260;22.558;2023-06-22T08:44:15;33.80;87.30
34460;DHT22;20704;51.260;22.558;2023-06-22T08:46:17;33.80;87.00
34460;DHT22;20704;51.260;22.558;2023-06-22T08:48:24;33.80;86.90
34460;DHT22;20704;51.260;22.558;2023-06-22T08:50:26;34.00;86.30
34460;DHT22;20704;51.260;22.558;2023-06-22T08:52:29;34.00;87.00
34460;DHT22;20704;51.260;22.558;2023-06-22T08:54:32;34.20;86.40
34460;DHT22;20704;51.260;22.558;2023-06-22T08:56:38;34.30;86.30
34460;DHT22;20704;51.260;22.558;2023-06-22T08:58:41;34.00;84.10
34460;DHT22;20704;51.260;22.558;2023-06-22T09:00:43;33.60;81.30
34460;DHT22;20704;51.260;22.558;2023-06-22T09:02:46;33.80;83.10
34460;DHT22;20704;51.260;22.558;2023-06-22T09:04:49;33.60;82.20
34460;DHT22;20704;51.260;22.558;2023-06-22T09:06:58;33.50;81.30
34460;DHT22;20704;51.260;22.558;2023-06-22T09:09:00;32.90;79.70
34460;DHT22;20704;51.260;22.558;2023-06-22T09:11:03;32.90;81.10
34460;DHT22;20704;51.260;22.558;2023-06-22T09:13:05;32.80;81.80
34460;DHT22;20704;51.260;22.558;2023-06-22T09:15:08;32.60;82.80
34460;DHT22;20704;51.260;22.558;2023-06-22T09:17:16;32.40;83.80
34460;DHT22;20704;51.260;22.558;2023-06-22T09:19:19;32.30;85.30
34460;DHT22;20704;51.260;22.558;2023-06-22T09:21:21;32.10;86.90
34460;DHT22;20704;51.260;22.558;2023-06-22T09:23:24;32.10;87.70
34460;DHT22;20704;51.260;22.558;2023-06-22T09:25:26;32.00;89.00
34460;DHT22;20704;51.260;22.558;2023-06-22T09:27:29;32.20;90.60
34460;DHT22;20704;51.260;22.558;2023-06-22T09:29:31;32.30;91.40
34460;DHT22;20704;51.260;22.558;2023-06-22T09:31:36;32.30;91.90
34460;DHT22;20704;51.260;22.558;2023-06-22T09:33:40;32.20;91.70
34460;DHT22;20704;51.260;22.558;2023-06-22T09:35:43;32.00;91.60
34460;DHT22;20704;51.260;22.558;2023-06-22T09:37:45;32.20;92.30
34460;DHT22;20704;51.260;22.558;2023-06-22T09:39:48;32.50;93.10
34460;DHT22;20704;51.260;22.558;2023-06-22T09:41:50;32.60;92.50
34460;DHT22;20704;51.260;22.558;2023-06-22T09:43:53;32.90;92.90
34460;DHT22;20704;51.260;22.558;2023-06-22T09:45:58;33.00;92.10
34460;DHT22;20704;51.260;22.558;2023-06-22T09:48:00;33.10;91.90
34460;DHT22;20704;51.260;22.558;2023-06-22T09:50:03;33.10;91.40
34460;DHT22;20704;51.260;22.558;2023-06-22T09:52:06;33.30;91.20
34460;DHT22;20704;51.260;22.558;2023-06-22T09:54:08;33.20;91.10
34460;DHT22;20704;51.260;22.558;2023-06-22T09:56:11;33.00;91.10
34460;DHT22;20704;51.260;22.558;2023-06-22T09:58:17;32.80;90.60
34460;DHT22;20704;51.260;22.558;2023-06-22T10:00:19;33.10;91.40
34460;DHT22;20704;51.260;22.558;2023-06-22T10:02:22;33.10;91.30
34460;DHT22;20704;51.260;22.558;2023-06-22T10:04:25;33.10;91.10
34460;DHT22;20704;51.260;22.558;2023-06-22T10:06:28;32.80;90.20
34460;DHT22;20704;51.260;22.558;2023-06-22T10:08:30;32.80;90.40
34460;DHT22;20704;51.260;22.558;2023-06-22T10:10:33;32.80;90.50
34460;DHT22;20704;51.260;22.558;2023-06-22T10:12:35;33.00;91.20
34460;DHT22;20704;51.260;22.558;2023-06-22T10:14:37;32.90;91.10
34460;DHT22;20704;51.260;22.558;2023-06-22T10:16:40;33.00;91.20
34460;DHT22;20704;51.260;22.558;2023-06-22T10:18:43;32.80;91.00
34460;DHT22;20704;51.260;22.558;2023-06-22T10:20:48;32.50;90.50
34460;DHT22;20704;51.260;22.558;2023-06-22T10:22:52;32.40;91.00
34460;DHT22;20704;51.260;22.558;2023-06-22T10:24:54;32.20;90.70
34460;DHT22;20704;51.260;22.558;2023-06-22T10:26:57;31.90;91.00
34460;DHT22;20704;51.260;22.558;2023-06-22T10:29:00;31.80;91.20
34460;DHT22;20704;51.260;22.558;2023-06-22T10:31:08;31.90;92.10
34460;DHT22;20704;51.260;22.558;2023-06-22T10:33:11;31.90;92.80
34460;DHT22;20704;51.260;22.558;2023-06-22T10:35:13;32.00;93.00
34460;DHT22;20704;51.260;22.558;2023-06-22T10:37:18;32.10;93.10
34460;DHT22;20704;51.260;22.558;2023-06-22T10:39:20;32.30;93.40
34460;DHT22;20704;51.260;22.558;2023-06-22T10:41:23;32.30;93.70
34460;DHT22;20704;51.260;22.558;2023-06-22T10:43:25;32.30;93.10
34460;DHT22;20704;51.260;22.558;2023-06-22T10:45:27;32.30;92.30
34460;DHT22;20704;51.260;22.558;2023-06-22T10:47:30;32.30;91.60
34460;DHT22;20704;51.260;22.558;2023-06-22T10:49:33;32.30;91.50
34460;DHT22;20704;51.260;22.558;2023-06-22T10:51:35;32.50;92.00
34460;DHT22;20704;51.260;22.558;2023-06-22T10:53:38;32.50;92.60
34460;DHT22;20704;51.260;22.558;2023-06-22T10:55:40;32.40;92.60
34460;DHT22;20704;51.260;22.558;2023-06-22T10:57:48;32.40;92.60
34460;DHT22;20704;51.260;22.558;2023-06-22T10:59:50;32.20;91.80
34460;DHT22;20704;51.260;22.558;2023-06-22T11:01:53;32.10;91.60
34460;DHT22;20704;51.260;22.558;2023-06-22T11:03:55;32.20;91.20
34460;DHT22;20704;51.260;22.558;2023-06-22T11:05:58;32.30;90.70
34460;DHT22;20704;51.260;22.558;2023-06-22T11:08:00;32.20;90.50
34460;DHT22;20704;51.260;22.558;2023-06-22T11:10:03;32.30;90.20
34460;DHT22;20704;51.260;22.558;2023-06-22T11:12:06;32.20;90.00
34460;DHT22;20704;51.260;22.558;2023-06-22T11:14:08;32.10;89.10
34460;DHT22;20704;51.260;22.558;2023-06-22T11:16:11;32.10;90.00
34460;DHT22;20704;51.260;22.558;2023-06-22T11:18:13;32.30;90.80
34460;DHT22;20704;51.260;22.558;2023-06-22T11:20:15;32.30;90.70
34460;DHT22;20704;51.260;22.558;2023-06-22T11:22:18;32.30;90.80
34460;DHT22;20704;51.260;22.558;2023-06-22T11:24:20;32.30;89.50
34460;DHT22;20704;51.260;22.558;2023-06-22T11:26:23;32.30;88.10
34460;DHT22;20704;51.260;22.558;2023-06-22T11:28:25;32.30;87.80
34460;DHT22;20704;51.260;22.558;2023-06-22T11:30:27;32.30;86.00
34460;DHT22;20704;51.260;22.558;2023-06-22T11:32:30;32.20;84.90
34460;DHT22;20704;51.260;22.558;2023-06-22T11:34:33;32.10;83.40
34460;DHT22;20704;51.260;22.558;2023-06-22T11:36:36;32.00;81.00
34460;DHT22;20704;51.260;22.558;2023-06-22T11:38:38;32.00;80.10
34460;DHT22;20704;51.260;22.558;2023-06-22T11:40:41;31.90;80.00
34460;DHT22;20704;51.260;22.558;2023-06-22T11:42:43;31.70;79.00
34460;DHT22;20704;51.260;22.558;2023-06-22T11:44:46;31.80;78.20
34460;DHT22;20704;51.260;22.558;2023-06-22T11:46:48;31.90;78.70
34460;DHT22;20704;51.260;22.558;2023-06-22T11:48:50;31.90;77.90
34460;DHT22;20704;51.260;22.558;2023-06-22T11:50:53;31.80;77.50
34460;DHT22;20704;51.260;22.558;2023-06-22T11:52:59;31.70;77.30
34460;DHT22;20704;51.260;22.558;2023-06-22T11:55:01;31.90;77.60
34460;DHT22;20704;51.260;22.558;2023-06-22T11:57:05;31.90;77.90
34460;DHT22;20704;51.260;22.558;2023-06-22T11:59:08;31.70;77.40
34460;DHT22;20704;51.260;22.558;2023-06-22T12:01:10;31.80;77.10
34460;DHT22;20704;51.260;22.558;2023-06-22T12:03:12;31.70;75.80
34460;DHT22;20704;51.260;22.558;2023-06-22T12:05:19;31.80;75.60
34460;DHT22;20704;51.260;22.558;2023-06-22T12:07:22;31.80;75.90
34460;DHT22;20704;51.260;22.558;2023-06-22T12:09:25;31.80;76.10
34460;DHT22;20704;51.260;22.558;2023-06-22T12:11:27;31.70;76.00
34460;DHT22;20704;51.260;22.558;2023-06-22T12:13:29;31.60;76.40
34460;DHT22;20704;51.260;22.558;2023-06-22T12:15:32;31.50;74.70
34460;DHT22;20704;51.260;22.558;2023-06-22T12:17:34;31.50;75.30
34460;DHT22;20704;51.260;22.558;2023-06-22T12:19:37;31.40;73.40
34460;DHT22;20704;51.260;22.558;2023-06-22T12:21:39;31.50;73.20
34460;DHT22;20704;51.260;22.558;2023-06-22T12:23:43;31.60;73.60
34460;DHT22;20704;51.260;22.558;2023-06-22T12:25:45;31.50;73.10
34460;DHT22;20704;51.260;22.558;2023-06-22T12:27:48;31.70;73.80
34460;DHT22;20704;51.260;22.558;2023-06-22T12:29:51;31.60;73.50
34460;DHT22;20704;51.260;22.558;2023-06-22T12:31:53;31.70;74.10
34460;DHT22;20704;51.260;22.558;2023-06-22T12:33:55;31.60;72.20
34460;DHT22;20704;51.260;22.558;2023-06-22T12:35:58;31.70;72.10
34460;DHT22;20704;51.260;22.558;2023-06-22T12:38:00;31.80;72.90
34460;DHT22;20704;51.260;22.558;2023-06-22T12:40:03;31.80;72.60
34460;DHT22;20704;51.260;22.558;2023-06-22T12:42:06;31.70;71.20
34460;DHT22;20704;51.260;22.558;2023-06-22T12:44:11;31.60;69.50
34460;DHT22;20704;51.260;22.558;2023-06-22T12:46:13;31.60;67.30
34460;DHT22;20704;51.260;22.558;2023-06-22T12:48:15;31.70;66.40
34460;DHT22;20704;51.260;22.558;2023-06-22T12:50:18;31.70;65.80
34460;DHT22;20704;51.260;22.558;2023-06-22T12:52:21;31.60;62.90
34460;DHT22;20704;51.260;22.558;2023-06-22T12:54:23;31.60;62.60